sensor_id;sensor_type;location;lat;lon;timestamp;P1;durP1;ratioP1;P2;durP2;ratioP2
43504;SDS011;29098;48.184;16.298;2023-05-07T00:01:56;5.15;;;2.80;;
43504;SDS011;29098;48.184;16.298;2023-05-07T00:04:22;5.57;;;3.15;;
43504;SDS011;29098;48.184;16.298;2023-05-07T00:06:47;4.55;;;2.97;;
43504;SDS011;29098;48.184;16.298;2023-05-07T00:09:13;5.55;;;2.63;;
43504;SDS011;29098;48.184;16.298;2023-05-07T00:11:39;5.10;;;2.75;;
43504;SDS011;29098;48.184;16.298;2023-05-07T00:14:04;5.03;;;2.58;;
43504;SDS011;29098;48.184;16.298;2023-05-07T00:16:30;3.45;;;2.28;;
43504;SDS011;29098;48.184;16.298;2023-05-07T00:18:55;5.05;;;2.83;;
43504;SDS011;29098;48.184;16.298;2023-05-07T00:21:21;4.55;;;2.45;;
43504;SDS011;29098;48.184;16.298;2023-05-07T00:23:47;3.10;;;2.20;;
43504;SDS011;29098;48.184;16.298;2023-05-07T00:26:12;3.92;;;2.30;;
43504;SDS011;29098;48.184;16.298;2023-05-07T00:28:38;3.72;;;2.25;;
43504;SDS011;29098;48.184;16.298;2023-05-07T00:31:04;4.28;;;2.00;;
43504;SDS011;29098;48.184;16.298;2023-05-07T00:33:37;4.70;;;1.95;;
43504;SDS011;29098;48.184;16.298;2023-05-07T00:36:03;6.05;;;2.50;;
43504;SDS011;29098;48.184;16.298;2023-05-07T00:38:29;3.78;;;2.35;;
43504;SDS011;29098;48.184;16.298;2023-05-07T00:40:54;3.65;;;2.50;;
43504;SDS011;29098;48.184;16.298;2023-05-07T00:43:20;3.70;;;2.13;;
43504;SDS011;29098;48.184;16.298;2023-05-07T00:45:46;4.10;;;2.22;;
43504;SDS011;29098;48.184;16.298;2023-05-07T00:48:11;3.35;;;1.90;;
43504;SDS011;29098;48.184;16.298;2023-05-07T00:50:37;5.47;;;1.95;;
43504;SDS011;29098;48.184;16.298;2023-05-07T00:53:03;3.20;;;1.90;;
43504;SDS011;29098;48.184;16.298;2023-05-07T00:55:29;4.07;;;2.25;;
43504;SDS011;29098;48.184;16.298;2023-05-07T00:57:55;3.60;;;1.83;;
43504;SDS011;29098;48.184;16.298;2023-05-07T01:00:21;4.78;;;2.42;;
43504;SDS011;29098;48.184;16.298;2023-05-07T01:02:47;7.35;;;2.67;;
43504;SDS011;29098;48.184;16.298;2023-05-07T01:05:13;3.58;;;2.15;;
43504;SDS011;29098;48.184;16.298;2023-05-07T01:07:40;2.70;;;1.63;;
43504;SDS011;29098;48.184;16.298;2023-05-07T01:10:07;3.10;;;1.80;;
43504;SDS011;29098;48.184;16.298;2023-05-07T01:12:35;4.30;;;2.25;;
43504;SDS011;29098;48.184;16.298;2023-05-07T01:15:03;4.95;;;2.40;;
43504;SDS011;29098;48.184;16.298;2023-05-07T01:17:34;2.75;;;1.90;;
43504;SDS011;29098;48.184;16.298;2023-05-07T01:20:06;3.30;;;1.88;;
43504;SDS011;29098;48.184;16.298;2023-05-07T01:22:33;3.80;;;2.17;;
43504;SDS011;29098;48.184;16.298;2023-05-07T01:25:01;3.55;;;1.90;;
43504;SDS011;29098;48.184;16.298;2023-05-07T01:27:28;4.22;;;2.15;;
43504;SDS011;29098;48.184;16.298;2023-05-07T01:29:54;4.25;;;2.17;;
43504;SDS011;29098;48.184;16.298;2023-05-07T01:32:22;3.85;;;2.30;;
43504;SDS011;29098;48.184;16.298;2023-05-07T01:35:01;4.90;;;2.17;;
43504;SDS011;29098;48.184;16.298;2023-05-07T01:37:28;3.78;;;2.40;;
43504;SDS011;29098;48.184;16.298;2023-05-07T01:39:54;3.70;;;2.40;;
43504;SDS011;29098;48.184;16.298;2023-05-07T01:42:21;3.15;;;1.90;;
43504;SDS011;29098;48.184;16.298;2023-05-07T01:44:47;3.72;;;2.40;;
43504;SDS011;29098;48.184;16.298;2023-05-07T01:47:13;3.83;;;2.50;;
43504;SDS011;29098;48.184;16.298;2023-05-07T01:49:39;2.63;;;1.65;;
43504;SDS011;29098;48.184;16.298;2023-05-07T01:52:10;2.75;;;1.85;;
43504;SDS011;29098;48.184;16.298;2023-05-07T01:54:37;4.75;;;2.15;;
43504;SDS011;29098;48.184;16.298;2023-05-07T01:57:02;4.32;;;2.60;;
43504;SDS011;29098;48.184;16.298;2023-05-07T01:59:28;4.47;;;2.05;;
43504;SDS011;29098;48.184;16.298;2023-05-07T02:01:53;3.83;;;1.92;;
43504;SDS011;29098;48.184;16.298;2023-05-07T02:04:19;3.47;;;2.10;;
43504;SDS011;29098;48.184;16.298;2023-05-07T02:06:45;2.85;;;1.90;;
43504;SDS011;29098;48.184;16.298;2023-05-07T02:09:11;3.92;;;2.20;;
43504;SDS011;29098;48.184;16.298;2023-05-07T02:11:36;4.53;;;2.08;;
43504;SDS011;29098;48.184;16.298;2023-05-07T02:14:02;4.10;;;2.05;;
43504;SDS011;29098;48.184;16.298;2023-05-07T02:16:28;4.03;;;2.40;;
43504;SDS011;29098;48.184;16.298;2023-05-07T02:18:53;3.38;;;2.10;;
43504;SDS011;29098;48.184;16.298;2023-05-07T02:21:19;3.17;;;1.92;;
43504;SDS011;29098;48.184;16.298;2023-05-07T02:23:44;3.97;;;2.65;;
43504;SDS011;29098;48.184;16.298;2023-05-07T02:26:10;4.78;;;2.25;;
43504;SDS011;29098;48.184;16.298;2023-05-07T02:28:36;4.03;;;2.35;;
43504;SDS011;29098;48.184;16.298;2023-05-07T02:31:02;3.92;;;2.42;;
43504;SDS011;29098;48.184;16.298;2023-05-07T02:33:30;3.58;;;2.40;;
43504;SDS011;29098;48.184;16.298;2023-05-07T02:35:56;5.20;;;2.20;;
43504;SDS011;29098;48.184;16.298;2023-05-07T02:38:22;4.00;;;2.00;;
43504;SDS011;29098;48.184;16.298;2023-05-07T02:40:48;4.40;;;2.35;;
43504;SDS011;29098;48.184;16.298;2023-05-07T02:43:13;4.78;;;2.30;;
43504;SDS011;29098;48.184;16.298;2023-05-07T02:45:39;5.20;;;2.38;;
43504;SDS011;29098;48.184;16.298;2023-05-07T02:48:04;3.92;;;2.13;;
43504;SDS011;29098;48.184;16.298;2023-05-07T02:50:33;4.28;;;2.60;;
43504;SDS011;29098;48.184;16.298;2023-05-07T02:52:58;4.78;;;2.72;;
43504;SDS011;29098;48.184;16.298;2023-05-07T02:55:24;6.07;;;3.08;;
43504;SDS011;29098;48.184;16.298;2023-05-07T02:57:50;5.45;;;2.90;;
43504;SDS011;29098;48.184;16.298;2023-05-07T03:00:16;4.90;;;2.45;;
43504;SDS011;29098;48.184;16.298;2023-05-07T03:02:43;4.90;;;3.30;;
43504;SDS011;29098;48.184;16.298;2023-05-07T03:05:10;4.35;;;2.60;;
43504;SDS011;29098;48.184;16.298;2023-05-07T03:07:35;4.32;;;2.90;;
43504;SDS011;29098;48.184;16.298;2023-05-07T03:10:02;4.80;;;3.22;;
43504;SDS011;29098;48.184;16.298;2023-05-07T03:12:28;4.35;;;2.70;;
43504;SDS011;29098;48.184;16.298;2023-05-07T03:14:53;6.00;;;2.70;;
43504;SDS011;29098;48.184;16.298;2023-05-07T03:17:19;7.68;;;2.90;;
43504;SDS011;29098;48.184;16.298;2023-05-07T03:19:46;6.75;;;3.53;;
43504;SDS011;29098;48.184;16.298;2023-05-07T03:22:11;7.03;;;3.72;;
43504;SDS011;29098;48.184;16.298;2023-05-07T03:24:37;5.05;;;3.58;;
43504;SDS011;29098;48.184;16.298;2023-05-07T03:27:02;4.72;;;3.70;;
43504;SDS011;29098;48.184;16.298;2023-05-07T03:29:28;6.20;;;3.72;;
43504;SDS011;29098;48.184;16.298;2023-05-07T03:31:53;6.50;;;4.05;;
43504;SDS011;29098;48.184;16.298;2023-05-07T03:34:19;6.30;;;4.20;;
43504;SDS011;29098;48.184;16.298;2023-05-07T03:36:48;6.63;;;4.10;;
43504;SDS011;29098;48.184;16.298;2023-05-07T03:39:14;7.00;;;4.03;;
43504;SDS011;29098;48.184;16.298;2023-05-07T03:41:39;6.18;;;3.92;;
43504;SDS011;29098;48.184;16.298;2023-05-07T03:44:05;5.15;;;3.75;;
43504;SDS011;29098;48.184;16.298;2023-05-07T03:46:31;6.65;;;3.63;;
43504;SDS011;29098;48.184;16.298;2023-05-07T03:48:57;6.18;;;4.65;;
43504;SDS011;29098;48.184;16.298;2023-05-07T03:51:23;6.95;;;4.90;;
43504;SDS011;29098;48.184;16.298;2023-05-07T03:53:49;6.82;;;4.82;;
43504;SDS011;29098;48.184;16.298;2023-05-07T03:56:17;6.72;;;4.05;;
43504;SDS011;29098;48.184;16.298;2023-05-07T03:58:43;9.32;;;4.95;;
43504;SDS011;29098;48.184;16.298;2023-05-07T04:01:08;7.38;;;5.15;;
43504;SDS011;29098;48.184;16.298;2023-05-07T04:03:34;8.55;;;5.05;;
43504;SDS011;29098;48.184;16.298;2023-05-07T04:06:00;8.18;;;4.78;;
43504;SDS011;29098;48.184;16.298;2023-05-07T04:08:25;8.30;;;5.20;;
43504;SDS011;29098;48.184;16.298;2023-05-07T04:10:55;6.20;;;4.40;;
43504;SDS011;29098;48.184;16.298;2023-05-07T04:13:21;10.35;;;5.38;;
43504;SDS011;29098;48.184;16.298;2023-05-07T04:15:46;8.23;;;5.53;;
43504;SDS011;29098;48.184;16.298;2023-05-07T04:18:14;7.03;;;5.18;;
43504;SDS011;29098;48.184;16.298;2023-05-07T04:20:40;7.47;;;5.22;;
43504;SDS011;29098;48.184;16.298;2023-05-07T04:23:06;8.88;;;5.97;;
43504;SDS011;29098;48.184;16.298;2023-05-07T04:25:32;8.98;;;6.40;;
43504;SDS011;29098;48.184;16.298;2023-05-07T04:27:58;10.48;;;6.07;;
43504;SDS011;29098;48.184;16.298;2023-05-07T04:30:23;10.38;;;6.70;;
43504;SDS011;29098;48.184;16.298;2023-05-07T04:32:49;9.73;;;7.00;;
43504;SDS011;29098;48.184;16.298;2023-05-07T04:35:15;10.18;;;6.97;;
43504;SDS011;29098;48.184;16.298;2023-05-07T04:37:41;10.63;;;6.93;;
43504;SDS011;29098;48.184;16.298;2023-05-07T04:40:06;10.23;;;6.88;;
43504;SDS011;29098;48.184;16.298;2023-05-07T04:42:32;11.05;;;7.47;;
43504;SDS011;29098;48.184;16.298;2023-05-07T04:44:58;15.48;;;8.02;;
43504;SDS011;29098;48.184;16.298;2023-05-07T04:47:24;9.30;;;6.45;;
43504;SDS011;29098;48.184;16.298;2023-05-07T04:49:49;10.15;;;6.68;;
43504;SDS011;29098;48.184;16.298;2023-05-07T04:52:15;13.60;;;7.68;;
43504;SDS011;29098;48.184;16.298;2023-05-07T04:54:40;9.82;;;6.38;;
43504;SDS011;29098;48.184;16.298;2023-05-07T04:57:06;10.00;;;6.72;;
43504;SDS011;29098;48.184;16.298;2023-05-07T04:59:32;10.20;;;6.28;;
43504;SDS011;29098;48.184;16.298;2023-05-07T05:01:58;10.07;;;6.63;;
43504;SDS011;29098;48.184;16.298;2023-05-07T05:04:23;10.95;;;7.15;;
43504;SDS011;29098;48.184;16.298;2023-05-07T05:06:49;8.63;;;6.38;;
43504;SDS011;29098;48.184;16.298;2023-05-07T05:09:15;11.35;;;8.18;;
43504;SDS011;29098;48.184;16.298;2023-05-07T05:11:41;13.65;;;9.35;;
43504;SDS011;29098;48.184;16.298;2023-05-07T05:14:06;16.33;;;10.68;;
43504;SDS011;29098;48.184;16.298;2023-05-07T05:16:32;17.35;;;11.27;;
43504;SDS011;29098;48.184;16.298;2023-05-07T05:18:58;18.08;;;12.35;;
43504;SDS011;29098;48.184;16.298;2023-05-07T05:21:24;21.20;;;12.85;;
43504;SDS011;29098;48.184;16.298;2023-05-07T05:23:50;25.48;;;15.45;;
43504;SDS011;29098;48.184;16.298;2023-05-07T05:26:15;22.50;;;13.25;;
43504;SDS011;29098;48.184;16.298;2023-05-07T05:28:41;21.10;;;14.13;;
43504;SDS011;29098;48.184;16.298;2023-05-07T05:31:07;24.05;;;16.40;;
43504;SDS011;29098;48.184;16.298;2023-05-07T05:33:32;23.77;;;16.40;;
43504;SDS011;29098;48.184;16.298;2023-05-07T05:35:58;22.33;;;14.02;;
43504;SDS011;29098;48.184;16.298;2023-05-07T05:38:23;26.27;;;16.05;;
43504;SDS011;29098;48.184;16.298;2023-05-07T05:40:49;23.75;;;15.50;;
43504;SDS011;29098;48.184;16.298;2023-05-07T05:43:15;24.63;;;16.85;;
43504;SDS011;29098;48.184;16.298;2023-05-07T05:45:40;21.40;;;15.13;;
43504;SDS011;29098;48.184;16.298;2023-05-07T05:48:06;26.60;;;17.50;;
43504;SDS011;29098;48.184;16.298;2023-05-07T05:50:31;22.20;;;15.98;;
43504;SDS011;29098;48.184;16.298;2023-05-07T05:52:57;26.60;;;17.40;;
43504;SDS011;29098;48.184;16.298;2023-05-07T05:55:23;24.17;;;16.58;;
43504;SDS011;29098;48.184;16.298;2023-05-07T05:57:48;27.20;;;18.52;;
43504;SDS011;29098;48.184;16.298;2023-05-07T06:00:15;22.33;;;15.77;;
43504;SDS011;29098;48.184;16.298;2023-05-07T06:02:41;28.45;;;18.20;;
43504;SDS011;29098;48.184;16.298;2023-05-07T06:05:07;25.10;;;16.33;;
43504;SDS011;29098;48.184;16.298;2023-05-07T06:07:33;23.98;;;16.95;;
43504;SDS011;29098;48.184;16.298;2023-05-07T06:10:00;27.25;;;17.52;;
43504;SDS011;29098;48.184;16.298;2023-05-07T06:12:26;25.50;;;17.55;;
43504;SDS011;29098;48.184;16.298;2023-05-07T06:14:51;24.48;;;17.35;;
43504;SDS011;29098;48.184;16.298;2023-05-07T06:17:17;25.75;;;17.73;;
43504;SDS011;29098;48.184;16.298;2023-05-07T06:19:43;28.70;;;19.23;;
43504;SDS011;29098;48.184;16.298;2023-05-07T06:22:08;29.42;;;19.48;;
43504;SDS011;29098;48.184;16.298;2023-05-07T06:24:36;26.25;;;18.20;;
43504;SDS011;29098;48.184;16.298;2023-05-07T06:27:01;26.17;;;18.38;;
43504;SDS011;29098;48.184;16.298;2023-05-07T06:29:27;27.00;;;18.23;;
43504;SDS011;29098;48.184;16.298;2023-05-07T06:31:53;27.40;;;19.67;;
43504;SDS011;29098;48.184;16.298;2023-05-07T06:34:18;23.08;;;16.88;;
43504;SDS011;29098;48.184;16.298;2023-05-07T06:36:44;25.52;;;18.05;;
43504;SDS011;29098;48.184;16.298;2023-05-07T06:39:10;29.38;;;18.63;;
43504;SDS011;29098;48.184;16.298;2023-05-07T06:41:35;27.88;;;20.30;;
43504;SDS011;29098;48.184;16.298;2023-05-07T06:44:01;25.60;;;18.15;;
43504;SDS011;29098;48.184;16.298;2023-05-07T06:46:28;28.58;;;18.73;;
43504;SDS011;29098;48.184;16.298;2023-05-07T06:48:54;29.05;;;20.30;;
43504;SDS011;29098;48.184;16.298;2023-05-07T06:51:21;30.17;;;19.15;;
43504;SDS011;29098;48.184;16.298;2023-05-07T06:53:47;29.15;;;20.08;;
43504;SDS011;29098;48.184;16.298;2023-05-07T06:56:13;29.35;;;20.40;;
43504;SDS011;29098;48.184;16.298;2023-05-07T06:58:38;28.67;;;20.15;;
43504;SDS011;29098;48.184;16.298;2023-05-07T07:01:04;26.05;;;19.23;;
43504;SDS011;29098;48.184;16.298;2023-05-07T07:03:29;26.08;;;19.02;;
43504;SDS011;29098;48.184;16.298;2023-05-07T07:05:55;32.72;;;20.52;;
43504;SDS011;29098;48.184;16.298;2023-05-07T07:08:21;27.15;;;18.27;;
43504;SDS011;29098;48.184;16.298;2023-05-07T07:10:47;24.77;;;18.83;;
43504;SDS011;29098;48.184;16.298;2023-05-07T07:13:13;24.75;;;17.73;;
43504;SDS011;29098;48.184;16.298;2023-05-07T07:15:38;26.05;;;17.75;;
43504;SDS011;29098;48.184;16.298;2023-05-07T07:18:05;25.30;;;17.98;;
43504;SDS011;29098;48.184;16.298;2023-05-07T07:20:31;21.92;;;16.88;;
43504;SDS011;29098;48.184;16.298;2023-05-07T07:22:56;25.98;;;17.80;;
43504;SDS011;29098;48.184;16.298;2023-05-07T07:25:22;26.45;;;17.95;;
43504;SDS011;29098;48.184;16.298;2023-05-07T07:27:48;24.30;;;17.08;;
43504;SDS011;29098;48.184;16.298;2023-05-07T07:30:14;24.88;;;17.85;;
43504;SDS011;29098;48.184;16.298;2023-05-07T07:32:40;23.27;;;17.38;;
43504;SDS011;29098;48.184;16.298;2023-05-07T07:35:06;21.73;;;16.13;;
43504;SDS011;29098;48.184;16.298;2023-05-07T07:37:32;22.52;;;15.10;;
43504;SDS011;29098;48.184;16.298;2023-05-07T07:39:57;23.20;;;16.77;;
43504;SDS011;29098;48.184;16.298;2023-05-07T07:42:23;22.20;;;16.05;;
43504;SDS011;29098;48.184;16.298;2023-05-07T07:44:48;21.48;;;15.93;;
43504;SDS011;29098;48.184;16.298;2023-05-07T07:47:14;20.67;;;15.45;;
43504;SDS011;29098;48.184;16.298;2023-05-07T07:49:39;21.67;;;15.40;;
43504;SDS011;29098;48.184;16.298;2023-05-07T07:52:05;20.83;;;15.57;;
43504;SDS011;29098;48.184;16.298;2023-05-07T07:54:31;19.85;;;14.40;;
43504;SDS011;29098;48.184;16.298;2023-05-07T07:56:57;21.85;;;14.88;;
43504;SDS011;29098;48.184;16.298;2023-05-07T07:59:23;19.05;;;14.85;;
43504;SDS011;29098;48.184;16.298;2023-05-07T08:01:48;21.27;;;14.63;;
43504;SDS011;29098;48.184;16.298;2023-05-07T08:04:15;20.42;;;14.68;;
43504;SDS011;29098;48.184;16.298;2023-05-07T08:06:41;18.25;;;13.20;;
43504;SDS011;29098;48.184;16.298;2023-05-07T08:09:07;18.35;;;12.63;;
43504;SDS011;29098;48.184;16.298;2023-05-07T08:11:33;18.48;;;12.30;;
43504;SDS011;29098;48.184;16.298;2023-05-07T08:13:59;15.35;;;12.38;;
43504;SDS011;29098;48.184;16.298;2023-05-07T08:16:24;18.75;;;12.85;;
43504;SDS011;29098;48.184;16.298;2023-05-07T08:18:50;16.27;;;12.15;;
43504;SDS011;29098;48.184;16.298;2023-05-07T08:21:15;16.92;;;13.25;;
43504;SDS011;29098;48.184;16.298;2023-05-07T08:23:41;17.70;;;12.68;;
43504;SDS011;29098;48.184;16.298;2023-05-07T08:26:07;17.70;;;11.73;;
43504;SDS011;29098;48.184;16.298;2023-05-07T08:28:33;13.73;;;11.00;;
43504;SDS011;29098;48.184;16.298;2023-05-07T08:30:59;15.90;;;11.50;;
43504;SDS011;29098;48.184;16.298;2023-05-07T08:33:26;15.45;;;11.85;;
43504;SDS011;29098;48.184;16.298;2023-05-07T08:35:52;15.30;;;11.45;;
43504;SDS011;29098;48.184;16.298;2023-05-07T08:38:17;16.98;;;11.82;;
43504;SDS011;29098;48.184;16.298;2023-05-07T08:40:43;17.02;;;12.60;;
43504;SDS011;29098;48.184;16.298;2023-05-07T08:43:08;17.48;;;12.77;;
43504;SDS011;29098;48.184;16.298;2023-05-07T08:45:37;15.15;;;11.80;;
43504;SDS011;29098;48.184;16.298;2023-05-07T08:48:05;15.93;;;11.43;;
43504;SDS011;29098;48.184;16.298;2023-05-07T08:50:40;15.32;;;11.98;;
43504;SDS011;29098;48.184;16.298;2023-05-07T08:53:06;16.15;;;12.30;;
43504;SDS011;29098;48.184;16.298;2023-05-07T08:55:31;19.08;;;12.20;;
43504;SDS011;29098;48.184;16.298;2023-05-07T08:57:58;15.13;;;11.57;;
43504;SDS011;29098;48.184;16.298;2023-05-07T09:00:24;15.18;;;11.30;;
43504;SDS011;29098;48.184;16.298;2023-05-07T09:02:50;13.77;;;10.55;;
43504;SDS011;29098;48.184;16.298;2023-05-07T09:05:16;15.02;;;11.02;;
43504;SDS011;29098;48.184;16.298;2023-05-07T09:07:41;17.63;;;11.43;;
43504;SDS011;29098;48.184;16.298;2023-05-07T09:10:07;18.33;;;13.07;;
43504;SDS011;29098;48.184;16.298;2023-05-07T09:12:33;15.65;;;11.70;;
43504;SDS011;29098;48.184;16.298;2023-05-07T09:15:00;16.20;;;11.88;;
43504;SDS011;29098;48.184;16.298;2023-05-07T09:17:28;15.55;;;10.73;;
43504;SDS011;29098;48.184;16.298;2023-05-07T09:19:54;15.05;;;9.93;;
43504;SDS011;29098;48.184;16.298;2023-05-07T09:22:20;15.20;;;10.98;;
43504;SDS011;29098;48.184;16.298;2023-05-07T09:24:49;15.95;;;11.23;;
43504;SDS011;29098;48.184;16.298;2023-05-07T09:27:15;17.90;;;11.43;;
43504;SDS011;29098;48.184;16.298;2023-05-07T09:29:41;17.10;;;12.02;;
43504;SDS011;29098;48.184;16.298;2023-05-07T09:32:07;15.10;;;10.82;;
43504;SDS011;29098;48.184;16.298;2023-05-07T09:34:34;14.90;;;10.65;;
43504;SDS011;29098;48.184;16.298;2023-05-07T09:37:03;14.55;;;10.80;;
43504;SDS011;29098;48.184;16.298;2023-05-07T09:39:48;16.38;;;11.55;;
43504;SDS011;29098;48.184;16.298;2023-05-07T09:42:15;15.45;;;11.60;;
43504;SDS011;29098;48.184;16.298;2023-05-07T09:44:41;15.13;;;11.35;;
43504;SDS011;29098;48.184;16.298;2023-05-07T09:47:08;17.38;;;10.98;;
43504;SDS011;29098;48.184;16.298;2023-05-07T09:49:35;17.98;;;11.10;;
43504;SDS011;29098;48.184;16.298;2023-05-07T09:52:02;14.93;;;9.98;;
43504;SDS011;29098;48.184;16.298;2023-05-07T09:54:31;16.55;;;11.52;;
43504;SDS011;29098;48.184;16.298;2023-05-07T09:56:58;15.20;;;10.43;;
43504;SDS011;29098;48.184;16.298;2023-05-07T09:59:27;12.65;;;9.50;;
43504;SDS011;29098;48.184;16.298;2023-05-07T10:01:56;14.15;;;9.40;;
43504;SDS011;29098;48.184;16.298;2023-05-07T10:04:24;14.18;;;9.27;;
43504;SDS011;29098;48.184;16.298;2023-05-07T10:06:53;11.25;;;9.57;;
43504;SDS011;29098;48.184;16.298;2023-05-07T10:09:20;14.77;;;10.70;;
43504;SDS011;29098;48.184;16.298;2023-05-07T10:11:46;12.27;;;9.30;;
43504;SDS011;29098;48.184;16.298;2023-05-07T10:14:14;13.38;;;9.05;;
43504;SDS011;29098;48.184;16.298;2023-05-07T10:16:40;13.18;;;8.18;;
43504;SDS011;29098;48.184;16.298;2023-05-07T10:19:07;12.63;;;8.65;;
43504;SDS011;29098;48.184;16.298;2023-05-07T10:21:37;29.60;;;20.08;;
43504;SDS011;29098;48.184;16.298;2023-05-07T10:24:04;13.65;;;9.20;;
43504;SDS011;29098;48.184;16.298;2023-05-07T10:29:12;12.60;;;10.10;;
43504;SDS011;29098;48.184;16.298;2023-05-07T10:34:28;13.02;;;10.23;;
43504;SDS011;29098;48.184;16.298;2023-05-07T10:36:58;12.85;;;8.70;;
43504;SDS011;29098;48.184;16.298;2023-05-07T10:39:24;14.05;;;8.63;;
43504;SDS011;29098;48.184;16.298;2023-05-07T10:41:49;12.63;;;9.13;;
43504;SDS011;29098;48.184;16.298;2023-05-07T10:44:28;12.18;;;8.65;;
43504;SDS011;29098;48.184;16.298;2023-05-07T10:47:07;12.35;;;8.48;;
43504;SDS011;29098;48.184;16.298;2023-05-07T10:49:35;11.18;;;8.10;;
43504;SDS011;29098;48.184;16.298;2023-05-07T10:52:23;10.52;;;7.70;;
43504;SDS011;29098;48.184;16.298;2023-05-07T10:57:42;10.18;;;8.07;;
43504;SDS011;29098;48.184;16.298;2023-05-07T11:03:07;28.42;;;20.23;;
43504;SDS011;29098;48.184;16.298;2023-05-07T11:05:33;11.20;;;7.80;;
43504;SDS011;29098;48.184;16.298;2023-05-07T11:07:59;9.90;;;8.07;;
43504;SDS011;29098;48.184;16.298;2023-05-07T11:13:19;9.95;;;7.15;;
43504;SDS011;29098;48.184;16.298;2023-05-07T11:16:19;11.50;;;7.45;;
43504;SDS011;29098;48.184;16.298;2023-05-07T11:18:55;11.48;;;7.40;;
43504;SDS011;29098;48.184;16.298;2023-05-07T11:21:34;11.63;;;8.07;;
43504;SDS011;29098;48.184;16.298;2023-05-07T11:24:01;11.23;;;7.95;;
43504;SDS011;29098;48.184;16.298;2023-05-07T11:26:29;10.75;;;7.78;;
43504;SDS011;29098;48.184;16.298;2023-05-07T11:28:56;12.55;;;8.25;;
43504;SDS011;29098;48.184;16.298;2023-05-07T11:31:25;10.18;;;7.40;;
43504;SDS011;29098;48.184;16.298;2023-05-07T11:33:53;10.85;;;7.57;;
43504;SDS011;29098;48.184;16.298;2023-05-07T11:36:20;12.77;;;7.70;;
43504;SDS011;29098;48.184;16.298;2023-05-07T11:38:47;11.23;;;7.93;;
43504;SDS011;29098;48.184;16.298;2023-05-07T11:41:12;10.40;;;7.20;;
43504;SDS011;29098;48.184;16.298;2023-05-07T11:43:39;10.15;;;7.10;;
43504;SDS011;29098;48.184;16.298;2023-05-07T11:46:19;9.45;;;7.05;;
43504;SDS011;29098;48.184;16.298;2023-05-07T11:48:45;9.63;;;7.25;;
43504;SDS011;29098;48.184;16.298;2023-05-07T11:51:10;10.20;;;7.53;;
43504;SDS011;29098;48.184;16.298;2023-05-07T11:53:40;10.02;;;7.32;;
43504;SDS011;29098;48.184;16.298;2023-05-07T11:56:07;9.18;;;6.32;;
43504;SDS011;29098;48.184;16.298;2023-05-07T11:58:34;8.02;;;6.05;;
43504;SDS011;29098;48.184;16.298;2023-05-07T12:01:00;9.45;;;6.03;;
43504;SDS011;29098;48.184;16.298;2023-05-07T12:03:25;8.70;;;6.20;;
43504;SDS011;29098;48.184;16.298;2023-05-07T12:05:51;8.38;;;6.78;;
43504;SDS011;29098;48.184;16.298;2023-05-07T12:08:17;9.40;;;6.55;;
43504;SDS011;29098;48.184;16.298;2023-05-07T12:10:45;9.05;;;6.25;;
43504;SDS011;29098;48.184;16.298;2023-05-07T12:13:19;8.82;;;6.82;;
43504;SDS011;29098;48.184;16.298;2023-05-07T12:15:46;9.85;;;6.95;;
43504;SDS011;29098;48.184;16.298;2023-05-07T12:18:15;10.15;;;6.70;;
43504;SDS011;29098;48.184;16.298;2023-05-07T12:20:41;9.45;;;7.03;;
43504;SDS011;29098;48.184;16.298;2023-05-07T12:23:07;10.57;;;6.65;;
43504;SDS011;29098;48.184;16.298;2023-05-07T12:25:36;8.27;;;6.28;;
43504;SDS011;29098;48.184;16.298;2023-05-07T12:28:08;8.27;;;6.28;;
43504;SDS011;29098;48.184;16.298;2023-05-07T12:30:42;26.75;;;17.88;;
43504;SDS011;29098;48.184;16.298;2023-05-07T12:33:08;12.10;;;9.13;;
43504;SDS011;29098;48.184;16.298;2023-05-07T12:35:38;8.95;;;7.43;;
43504;SDS011;29098;48.184;16.298;2023-05-07T12:38:09;11.30;;;7.95;;
43504;SDS011;29098;48.184;16.298;2023-05-07T12:40:42;10.80;;;6.90;;
43504;SDS011;29098;48.184;16.298;2023-05-07T12:43:17;9.40;;;7.10;;
43504;SDS011;29098;48.184;16.298;2023-05-07T12:45:46;11.02;;;7.18;;
43504;SDS011;29098;48.184;16.298;2023-05-07T12:48:14;8.15;;;6.57;;
43504;SDS011;29098;48.184;16.298;2023-05-07T12:50:39;9.05;;;6.18;;
43504;SDS011;29098;48.184;16.298;2023-05-07T12:53:05;7.97;;;6.38;;
43504;SDS011;29098;48.184;16.298;2023-05-07T12:55:34;16.73;;;6.75;;
43504;SDS011;29098;48.184;16.298;2023-05-07T12:58:06;8.07;;;5.93;;
43504;SDS011;29098;48.184;16.298;2023-05-07T13:00:41;9.15;;;6.47;;
43504;SDS011;29098;48.184;16.298;2023-05-07T13:03:08;9.75;;;6.38;;
43504;SDS011;29098;48.184;16.298;2023-05-07T13:05:33;9.27;;;5.88;;
43504;SDS011;29098;48.184;16.298;2023-05-07T13:07:59;10.85;;;6.93;;
43504;SDS011;29098;48.184;16.298;2023-05-07T13:10:25;9.52;;;6.00;;
43504;SDS011;29098;48.184;16.298;2023-05-07T13:12:51;9.23;;;6.53;;
43504;SDS011;29098;48.184;16.298;2023-05-07T13:15:17;9.82;;;5.85;;
43504;SDS011;29098;48.184;16.298;2023-05-07T13:17:43;11.38;;;6.88;;
43504;SDS011;29098;48.184;16.298;2023-05-07T13:20:09;8.93;;;5.93;;
43504;SDS011;29098;48.184;16.298;2023-05-07T13:22:36;8.73;;;5.22;;
43504;SDS011;29098;48.184;16.298;2023-05-07T13:25:02;7.57;;;5.75;;
43504;SDS011;29098;48.184;16.298;2023-05-07T13:27:27;7.93;;;5.32;;
43504;SDS011;29098;48.184;16.298;2023-05-07T13:29:55;8.18;;;6.10;;
43504;SDS011;29098;48.184;16.298;2023-05-07T13:32:21;8.02;;;6.00;;
43504;SDS011;29098;48.184;16.298;2023-05-07T13:34:47;7.85;;;5.60;;
43504;SDS011;29098;48.184;16.298;2023-05-07T13:37:12;12.32;;;9.05;;
43504;SDS011;29098;48.184;16.298;2023-05-07T13:39:38;9.85;;;7.05;;
43504;SDS011;29098;48.184;16.298;2023-05-07T13:42:03;8.50;;;5.90;;
43504;SDS011;29098;48.184;16.298;2023-05-07T13:44:29;6.82;;;5.57;;
43504;SDS011;29098;48.184;16.298;2023-05-07T13:46:54;6.65;;;5.25;;
43504;SDS011;29098;48.184;16.298;2023-05-07T13:49:20;6.60;;;4.90;;
43504;SDS011;29098;48.184;16.298;2023-05-07T13:51:45;6.28;;;4.80;;
43504;SDS011;29098;48.184;16.298;2023-05-07T13:54:11;7.13;;;5.10;;
43504;SDS011;29098;48.184;16.298;2023-05-07T13:56:36;7.55;;;5.95;;
43504;SDS011;29098;48.184;16.298;2023-05-07T13:59:02;7.10;;;5.10;;
43504;SDS011;29098;48.184;16.298;2023-05-07T14:01:28;9.13;;;5.30;;
43504;SDS011;29098;48.184;16.298;2023-05-07T14:03:53;7.55;;;5.10;;
43504;SDS011;29098;48.184;16.298;2023-05-07T14:06:19;13.00;;;7.22;;
43504;SDS011;29098;48.184;16.298;2023-05-07T14:08:44;8.43;;;5.80;;
43504;SDS011;29098;48.184;16.298;2023-05-07T14:11:10;7.35;;;5.35;;
43504;SDS011;29098;48.184;16.298;2023-05-07T14:13:35;7.03;;;5.05;;
43504;SDS011;29098;48.184;16.298;2023-05-07T14:16:01;6.68;;;4.57;;
43504;SDS011;29098;48.184;16.298;2023-05-07T14:18:26;6.88;;;4.78;;
43504;SDS011;29098;48.184;16.298;2023-05-07T14:20:54;6.68;;;4.88;;
43504;SDS011;29098;48.184;16.298;2023-05-07T14:23:19;6.57;;;4.75;;
43504;SDS011;29098;48.184;16.298;2023-05-07T14:25:47;6.97;;;4.32;;
43504;SDS011;29098;48.184;16.298;2023-05-07T14:28:12;5.63;;;4.30;;
43504;SDS011;29098;48.184;16.298;2023-05-07T14:30:38;6.40;;;4.20;;
43504;SDS011;29098;48.184;16.298;2023-05-07T14:33:04;6.53;;;4.53;;
43504;SDS011;29098;48.184;16.298;2023-05-07T14:35:29;8.07;;;4.68;;